Sawyer International Airport
KSAW : rendu visible

Aérodrome :











RETROUVEZ-NOUS SUR...

 
LOGIN :

S'inscrire | Disclaimer

   EN    FR    IT 

 









Légende :    VFR   VFR Marginal   IFR   IFR Intensif   IFR Très Intensif
Visi : 
Plafond : 
>= 8 km
>= 3000ft
5 à 8 km
1000 à 3000 ft
1500m à 5 km
500 à 1000 ft
800 à 1500m
200 à 500 ft
< 800m
< 200 ft
Symboles :   Orages  Brouillard  Fortes neiges  Fortes précipitations  Vent > 20 kt






- Altitude de l'aérodrome : 1221 ft


KSAW - Sawyer International

DERNIER METAR :
  • 250218Z AUTO 17006KT 10SM CLR 19/14 A2990 RMK AO2 T01850143

METARs EXPIRÉS :
  • 250147Z 17008KT 10SM SKC 20/14 A2989
  • 250047Z 15007KT 10SM SKC 22/15 A2988
  • 242347Z 14005KT 10SM SCT037 SCT045 23/15 A2986

TAF KSAW
Valide du 25 à 00h jusqu'au 26 à 00h UTC


242341Z 2500/2524 15005KT P6SM SCT120
FM250600 19005KT 5SM BR BKN100
FM250900 20005KT 3SM BR VCSH BKN019
FM251300 19006KT P6SM SCT035
FIR KZMP / Amérique du Nord



MET'MAP, la Météo Aéronautique d'un coup d'oeil ! - Copyright ORBIFLY Décembre 2007 - Disclaimer

ORBIFLY MET'MAP TEAM :

Programmation & Développement : Alexandra Zaïnal
Sur une idée originale de : Baudouin d'Aumeries
Assistance à la programmation : Marc-Olivier Méhu
Soutien technique & logistique : Manuel Goepfert

Contact : metmap@orbifly.com




SOURCES & CREDITS :

   NOAA       Earth
Advisory